sensor_id;sensor_type;location;lat;lon;timestamp;temperature;humidity
52387;DHT22;38317;53.084;6.960;2022-11-20T00:01:27;0.70;99.90
52387;DHT22;38317;53.084;6.960;2022-11-20T00:03:55;1.00;99.90
52387;DHT22;38317;53.084;6.960;2022-11-20T00:06:21;0.70;99.90
52387;DHT22;38317;53.084;6.960;2022-11-20T00:08:48;0.50;99.90
52387;DHT22;38317;53.084;6.960;2022-11-20T00:11:19;0.80;99.90
52387;DHT22;38317;53.084;6.960;2022-11-20T00:13:46;0.60;99.90
52387;DHT22;38317;53.084;6.960;2022-11-20T00:16:15;0.50;99.90
52387;DHT22;38317;53.084;6.960;2022-11-20T00:18:41;0.60;99.90
52387;DHT22;38317;53.084;6.960;2022-11-20T00:21:18;0.60;99.90
52387;DHT22;38317;53.084;6.960;2022-11-20T00:23:45;0.70;99.90
52387;DHT22;38317;53.084;6.960;2022-11-20T00:26:13;1.00;99.90
52387;DHT22;38317;53.084;6.960;2022-11-20T00:28:40;0.60;99.90
52387;DHT22;38317;53.084;6.960;2022-11-20T00:31:15;1.30;99.90
52387;DHT22;38317;53.084;6.960;2022-11-20T00:33:42;0.60;99.90
52387;DHT22;38317;53.084;6.960;2022-11-20T00:36:14;0.60;99.90
52387;DHT22;38317;53.084;6.960;2022-11-20T00:38:40;0.70;99.90
52387;DHT22;38317;53.084;6.960;2022-11-20T00:41:09;0.70;99.90
52387;DHT22;38317;53.084;6.960;2022-11-20T00:43:35;0.60;99.90
52387;DHT22;38317;53.084;6.960;2022-11-20T00:46:03;0.70;99.90
52387;DHT22;38317;53.084;6.960;2022-11-20T00:48:29;0.70;99.90
52387;DHT22;38317;53.084;6.960;2022-11-20T00:50:55;0.60;99.90
52387;DHT22;38317;53.084;6.960;2022-11-20T00:53:21;0.60;99.90
52387;DHT22;38317;53.084;6.960;2022-11-20T00:56:14;0.60;99.90
52387;DHT22;38317;53.084;6.960;2022-11-20T00:58:42;0.60;99.90
52387;DHT22;38317;53.084;6.960;2022-11-20T01:03:42;0.60;99.90
52387;DHT22;38317;53.084;6.960;2022-11-20T01:08:45;0.60;99.90
52387;DHT22;38317;53.084;6.960;2022-11-20T01:11:14;0.60;99.90
52387;DHT22;38317;53.084;6.960;2022-11-20T01:13:40;0.50;99.90
52387;DHT22;38317;53.084;6.960;2022-11-20T01:18:39;0.50;99.90
52387;DHT22;38317;53.084;6.960;2022-11-20T01:21:07;1.00;99.90
52387;DHT22;38317;53.084;6.960;2022-11-20T01:23:35;0.60;99.90
52387;DHT22;38317;53.084;6.960;2022-11-20T01:26:05;1.10;99.90
52387;DHT22;38317;53.084;6.960;2022-11-20T01:28:32;0.60;99.90
52387;DHT22;38317;53.084;6.960;2022-11-20T01:30:58;0.60;99.90
52387;DHT22;38317;53.084;6.960;2022-11-20T01:33:24;0.70;99.90
52387;DHT22;38317;53.084;6.960;2022-11-20T01:35:50;0.60;99.90
52387;DHT22;38317;53.084;6.960;2022-11-20T01:38:16;0.60;99.90
52387;DHT22;38317;53.084;6.960;2022-11-20T01:40:42;1.30;99.90
52387;DHT22;38317;53.084;6.960;2022-11-20T01:43:17;0.50;99.90
52387;DHT22;38317;53.084;6.960;2022-11-20T01:46:14;0.70;99.90
52387;DHT22;38317;53.084;6.960;2022-11-20T01:53:53;0.50;99.90
52387;DHT22;38317;53.084;6.960;2022-11-20T01:56:19;0.60;99.90
52387;DHT22;38317;53.084;6.960;2022-11-20T01:58:50;0.80;99.90
52387;DHT22;38317;53.084;6.960;2022-11-20T02:01:17;0.60;99.90
52387;DHT22;38317;53.084;6.960;2022-11-20T02:03:44;0.60;99.90
52387;DHT22;38317;53.084;6.960;2022-11-20T02:06:26;0.60;99.90
52387;DHT22;38317;53.084;6.960;2022-11-20T02:08:53;0.60;99.90
52387;DHT22;38317;53.084;6.960;2022-11-20T02:11:20;0.40;99.90
52387;DHT22;38317;53.084;6.960;2022-11-20T02:13:47;0.60;99.90
52387;DHT22;38317;53.084;6.960;2022-11-20T02:16:36;0.60;99.90
52387;DHT22;38317;53.084;6.960;2022-11-20T02:19:04;0.60;99.90
52387;DHT22;38317;53.084;6.960;2022-11-20T02:21:47;0.60;99.90
52387;DHT22;38317;53.084;6.960;2022-11-20T02:24:18;1.00;99.90
52387;DHT22;38317;53.084;6.960;2022-11-20T02:32:23;0.60;99.90
52387;DHT22;38317;53.084;6.960;2022-11-20T02:34:49;0.60;99.90
52387;DHT22;38317;53.084;6.960;2022-11-20T02:37:15;0.70;99.90
52387;DHT22;38317;53.084;6.960;2022-11-20T02:39:44;0.60;99.90
52387;DHT22;38317;53.084;6.960;2022-11-20T02:42:10;1.00;99.90
52387;DHT22;38317;53.084;6.960;2022-11-20T02:44:35;0.60;99.90
52387;DHT22;38317;53.084;6.960;2022-11-20T02:47:01;0.60;99.90
52387;DHT22;38317;53.084;6.960;2022-11-20T02:49:27;0.60;99.90
52387;DHT22;38317;53.084;6.960;2022-11-20T02:51:53;0.60;99.90
52387;DHT22;38317;53.084;6.960;2022-11-20T02:54:18;0.80;99.90
52387;DHT22;38317;53.084;6.960;2022-11-20T02:56:44;0.70;99.90
52387;DHT22;38317;53.084;6.960;2022-11-20T02:59:10;1.00;99.90
52387;DHT22;38317;53.084;6.960;2022-11-20T03:01:36;0.70;99.90
52387;DHT22;38317;53.084;6.960;2022-11-20T03:04:02;0.70;99.90
52387;DHT22;38317;53.084;6.960;2022-11-20T03:06:28;0.80;99.90
52387;DHT22;38317;53.084;6.960;2022-11-20T03:08:54;0.70;99.90
52387;DHT22;38317;53.084;6.960;2022-11-20T03:11:19;0.70;99.90
52387;DHT22;38317;53.084;6.960;2022-11-20T03:13:45;0.80;99.90
52387;DHT22;38317;53.084;6.960;2022-11-20T03:16:17;0.80;99.90
52387;DHT22;38317;53.084;6.960;2022-11-20T03:18:43;0.80;99.90
52387;DHT22;38317;53.084;6.960;2022-11-20T03:21:10;0.80;99.90
52387;DHT22;38317;53.084;6.960;2022-11-20T03:23:39;0.80;99.90
52387;DHT22;38317;53.084;6.960;2022-11-20T03:26:19;0.80;99.90
52387;DHT22;38317;53.084;6.960;2022-11-20T03:28:59;0.80;99.90
52387;DHT22;38317;53.084;6.960;2022-11-20T03:31:37;0.80;99.90
52387;DHT22;38317;53.084;6.960;2022-11-20T03:34:04;0.90;99.90
52387;DHT22;38317;53.084;6.960;2022-11-20T03:36:30;0.80;99.90
52387;DHT22;38317;53.084;6.960;2022-11-20T03:38:56;0.80;99.90
52387;DHT22;38317;53.084;6.960;2022-11-20T03:41:25;1.10;99.90
52387;DHT22;38317;53.084;6.960;2022-11-20T03:43:53;0.80;99.90
52387;DHT22;38317;53.084;6.960;2022-11-20T03:46:19;0.90;99.90
52387;DHT22;38317;53.084;6.960;2022-11-20T03:48:46;1.20;99.90
52387;DHT22;38317;53.084;6.960;2022-11-20T03:51:17;0.90;99.90
52387;DHT22;38317;53.084;6.960;2022-11-20T03:53:45;1.20;99.90
52387;DHT22;38317;53.084;6.960;2022-11-20T03:56:11;0.90;99.90
52387;DHT22;38317;53.084;6.960;2022-11-20T03:58:39;1.20;99.90
52387;DHT22;38317;53.084;6.960;2022-11-20T04:01:07;1.10;99.90
52387;DHT22;38317;53.084;6.960;2022-11-20T04:03:33;0.90;99.90
52387;DHT22;38317;53.084;6.960;2022-11-20T04:06:16;0.90;99.90
52387;DHT22;38317;53.084;6.960;2022-11-20T04:08:42;1.20;99.90
52387;DHT22;38317;53.084;6.960;2022-11-20T04:13:42;1.30;99.90
52387;DHT22;38317;53.084;6.960;2022-11-20T04:16:11;1.00;99.90
52387;DHT22;38317;53.084;6.960;2022-11-20T04:18:37;0.90;99.90
52387;DHT22;38317;53.084;6.960;2022-11-20T04:21:04;0.90;99.90
52387;DHT22;38317;53.084;6.960;2022-11-20T04:23:30;0.90;99.90
52387;DHT22;38317;53.084;6.960;2022-11-20T04:26:07;1.00;99.90
52387;DHT22;38317;53.084;6.960;2022-11-20T04:28:34;1.00;99.90
52387;DHT22;38317;53.084;6.960;2022-11-20T04:31:05;1.00;99.90
52387;DHT22;38317;53.084;6.960;2022-11-20T04:33:31;1.00;99.90
52387;DHT22;38317;53.084;6.960;2022-11-20T04:36:05;0.90;99.90
52387;DHT22;38317;53.084;6.960;2022-11-20T04:38:31;1.00;99.90
52387;DHT22;38317;53.084;6.960;2022-11-20T04:40:59;1.00;99.90
52387;DHT22;38317;53.084;6.960;2022-11-20T04:43:25;1.10;99.90
52387;DHT22;38317;53.084;6.960;2022-11-20T04:45:52;1.00;99.90
52387;DHT22;38317;53.084;6.960;2022-11-20T04:48:18;1.00;99.90
52387;DHT22;38317;53.084;6.960;2022-11-20T04:50:43;0.90;99.90
52387;DHT22;38317;53.084;6.960;2022-11-20T04:53:09;1.00;99.90
52387;DHT22;38317;53.084;6.960;2022-11-20T04:55:35;0.90;99.90
52387;DHT22;38317;53.084;6.960;2022-11-20T04:58:00;1.00;99.90
52387;DHT22;38317;53.084;6.960;2022-11-20T05:00:26;0.90;99.90
52387;DHT22;38317;53.084;6.960;2022-11-20T05:02:52;0.90;99.90
52387;DHT22;38317;53.084;6.960;2022-11-20T05:05:18;0.70;99.90
52387;DHT22;38317;53.084;6.960;2022-11-20T05:07:44;0.90;99.90
52387;DHT22;38317;53.084;6.960;2022-11-20T05:10:09;0.90;99.90
52387;DHT22;38317;53.084;6.960;2022-11-20T05:12:35;0.90;99.90
52387;DHT22;38317;53.084;6.960;2022-11-20T05:15:01;1.20;99.90
52387;DHT22;38317;53.084;6.960;2022-11-20T05:17:26;0.70;99.90
52387;DHT22;38317;53.084;6.960;2022-11-20T05:19:52;1.00;99.90
52387;DHT22;38317;53.084;6.960;2022-11-20T05:22:18;1.00;99.90
52387;DHT22;38317;53.084;6.960;2022-11-20T05:24:43;1.00;99.90
52387;DHT22;38317;53.084;6.960;2022-11-20T05:27:09;1.00;99.90
52387;DHT22;38317;53.084;6.960;2022-11-20T05:29:35;1.00;99.90
52387;DHT22;38317;53.084;6.960;2022-11-20T05:32:01;1.00;99.90
52387;DHT22;38317;53.084;6.960;2022-11-20T05:34:26;1.00;99.90
52387;DHT22;38317;53.084;6.960;2022-11-20T05:36:52;1.10;99.90
52387;DHT22;38317;53.084;6.960;2022-11-20T05:39:18;1.00;99.90
52387;DHT22;38317;53.084;6.960;2022-11-20T05:41:43;1.00;99.90
52387;DHT22;38317;53.084;6.960;2022-11-20T05:44:12;1.00;99.90
52387;DHT22;38317;53.084;6.960;2022-11-20T05:46:38;1.00;99.90
52387;DHT22;38317;53.084;6.960;2022-11-20T05:49:04;0.80;99.90
52387;DHT22;38317;53.084;6.960;2022-11-20T05:51:30;0.90;99.90
52387;DHT22;38317;53.084;6.960;2022-11-20T05:53:58;0.90;99.90
52387;DHT22;38317;53.084;6.960;2022-11-20T05:56:24;0.90;99.90
52387;DHT22;38317;53.084;6.960;2022-11-20T05:58:50;0.90;99.90
52387;DHT22;38317;53.084;6.960;2022-11-20T06:01:19;0.90;99.90
52387;DHT22;38317;53.084;6.960;2022-11-20T06:03:45;1.20;99.90
52387;DHT22;38317;53.084;6.960;2022-11-20T06:06:14;1.00;99.90
52387;DHT22;38317;53.084;6.960;2022-11-20T06:08:40;1.20;99.90
52387;DHT22;38317;53.084;6.960;2022-11-20T06:11:08;0.90;99.90
52387;DHT22;38317;53.084;6.960;2022-11-20T06:13:35;0.90;99.90
52387;DHT22;38317;53.084;6.960;2022-11-20T06:16:01;0.90;99.90
52387;DHT22;38317;53.084;6.960;2022-11-20T06:18:28;0.80;99.90
52387;DHT22;38317;53.084;6.960;2022-11-20T06:21:08;0.90;99.90
52387;DHT22;38317;53.084;6.960;2022-11-20T06:23:35;0.90;99.90
52387;DHT22;38317;53.084;6.960;2022-11-20T06:26:13;1.30;99.90
52387;DHT22;38317;53.084;6.960;2022-11-20T06:28:39;1.00;99.90
52387;DHT22;38317;53.084;6.960;2022-11-20T06:31:06;0.90;99.90
52387;DHT22;38317;53.084;6.960;2022-11-20T06:33:32;0.90;99.90
52387;DHT22;38317;53.084;6.960;2022-11-20T06:35:59;0.90;99.90
52387;DHT22;38317;53.084;6.960;2022-11-20T06:38:26;1.10;99.90
52387;DHT22;38317;53.084;6.960;2022-11-20T06:40:52;0.90;99.90
52387;DHT22;38317;53.084;6.960;2022-11-20T06:43:18;1.20;99.90
52387;DHT22;38317;53.084;6.960;2022-11-20T06:45:43;0.90;99.90
52387;DHT22;38317;53.084;6.960;2022-11-20T06:48:09;0.90;99.90
52387;DHT22;38317;53.084;6.960;2022-11-20T06:50:36;0.90;99.90
52387;DHT22;38317;53.084;6.960;2022-11-20T06:53:03;0.60;99.90
52387;DHT22;38317;53.084;6.960;2022-11-20T06:55:30;0.90;99.90
52387;DHT22;38317;53.084;6.960;2022-11-20T06:57:57;1.20;99.90
52387;DHT22;38317;53.084;6.960;2022-11-20T07:00:22;1.00;99.90
52387;DHT22;38317;53.084;6.960;2022-11-20T07:02:48;0.90;99.90
52387;DHT22;38317;53.084;6.960;2022-11-20T07:05:14;0.90;99.90
52387;DHT22;38317;53.084;6.960;2022-11-20T07:07:40;0.90;99.90
52387;DHT22;38317;53.084;6.960;2022-11-20T07:10:06;0.90;99.90
52387;DHT22;38317;53.084;6.960;2022-11-20T07:12:31;0.90;99.90
52387;DHT22;38317;53.084;6.960;2022-11-20T07:14:57;0.90;99.90
52387;DHT22;38317;53.084;6.960;2022-11-20T07:17:23;0.80;99.90
52387;DHT22;38317;53.084;6.960;2022-11-20T07:19:49;0.90;99.90
52387;DHT22;38317;53.084;6.960;2022-11-20T07:22:15;0.90;99.90
52387;DHT22;38317;53.084;6.960;2022-11-20T07:24:40;0.90;99.90
52387;DHT22;38317;53.084;6.960;2022-11-20T07:27:06;0.90;99.90
52387;DHT22;38317;53.084;6.960;2022-11-20T07:29:32;1.60;99.90
52387;DHT22;38317;53.084;6.960;2022-11-20T07:31:58;0.90;99.90
52387;DHT22;38317;53.084;6.960;2022-11-20T07:34:24;1.00;99.90
52387;DHT22;38317;53.084;6.960;2022-11-20T07:36:50;1.00;99.90
52387;DHT22;38317;53.084;6.960;2022-11-20T07:39:16;1.00;99.90
52387;DHT22;38317;53.084;6.960;2022-11-20T07:41:41;1.70;99.90
52387;DHT22;38317;53.084;6.960;2022-11-20T07:44:07;1.00;99.90
52387;DHT22;38317;53.084;6.960;2022-11-20T07:46:33;1.00;99.90
52387;DHT22;38317;53.084;6.960;2022-11-20T07:48:58;1.60;99.90
52387;DHT22;38317;53.084;6.960;2022-11-20T07:51:24;1.00;99.90
52387;DHT22;38317;53.084;6.960;2022-11-20T07:53:54;1.00;99.90
52387;DHT22;38317;53.084;6.960;2022-11-20T07:56:20;1.10;99.90
52387;DHT22;38317;53.084;6.960;2022-11-20T07:58:45;1.20;99.90
52387;DHT22;38317;53.084;6.960;2022-11-20T08:01:11;1.10;99.90
52387;DHT22;38317;53.084;6.960;2022-11-20T08:03:37;1.30;99.90
52387;DHT22;38317;53.084;6.960;2022-11-20T08:06:03;1.10;99.90
52387;DHT22;38317;53.084;6.960;2022-11-20T08:08:30;1.10;99.90
52387;DHT22;38317;53.084;6.960;2022-11-20T08:10:59;1.10;99.90
52387;DHT22;38317;53.084;6.960;2022-11-20T08:13:44;1.10;99.90
52387;DHT22;38317;53.084;6.960;2022-11-20T08:16:28;1.10;99.90
52387;DHT22;38317;53.084;6.960;2022-11-20T08:18:54;1.20;99.90
52387;DHT22;38317;53.084;6.960;2022-11-20T08:21:20;1.30;99.90
52387;DHT22;38317;53.084;6.960;2022-11-20T08:23:46;1.10;99.90
52387;DHT22;38317;53.084;6.960;2022-11-20T08:26:11;1.10;99.90
52387;DHT22;38317;53.084;6.960;2022-11-20T08:28:37;1.20;99.90
52387;DHT22;38317;53.084;6.960;2022-11-20T08:31:03;1.20;99.90
52387;DHT22;38317;53.084;6.960;2022-11-20T08:33:30;1.20;99.90
52387;DHT22;38317;53.084;6.960;2022-11-20T08:36:02;1.10;99.90
52387;DHT22;38317;53.084;6.960;2022-11-20T08:38:28;1.10;99.90
52387;DHT22;38317;53.084;6.960;2022-11-20T08:41:02;1.20;99.90
52387;DHT22;38317;53.084;6.960;2022-11-20T08:43:47;1.20;99.90
52387;DHT22;38317;53.084;6.960;2022-11-20T08:46:13;1.20;99.90
52387;DHT22;38317;53.084;6.960;2022-11-20T08:48:39;1.10;99.90
52387;DHT22;38317;53.084;6.960;2022-11-20T08:51:05;1.20;99.90
52387;DHT22;38317;53.084;6.960;2022-11-20T08:53:31;1.20;99.90
52387;DHT22;38317;53.084;6.960;2022-11-20T08:55:57;1.20;99.90
52387;DHT22;38317;53.084;6.960;2022-11-20T08:58:24;1.20;99.90
52387;DHT22;38317;53.084;6.960;2022-11-20T09:00:50;1.20;99.90
52387;DHT22;38317;53.084;6.960;2022-11-20T09:03:15;1.20;99.90
52387;DHT22;38317;53.084;6.960;2022-11-20T09:05:41;1.20;99.90
52387;DHT22;38317;53.084;6.960;2022-11-20T09:08:08;1.20;99.90
52387;DHT22;38317;53.084;6.960;2022-11-20T09:10:34;1.20;99.90
52387;DHT22;38317;53.084;6.960;2022-11-20T09:13:00;1.20;99.90
52387;DHT22;38317;53.084;6.960;2022-11-20T09:15:27;1.70;99.90
52387;DHT22;38317;53.084;6.960;2022-11-20T09:17:57;1.30;99.90
52387;DHT22;38317;53.084;6.960;2022-11-20T09:20:24;1.30;99.90
52387;DHT22;38317;53.084;6.960;2022-11-20T09:22:50;1.30;99.90
52387;DHT22;38317;53.084;6.960;2022-11-20T09:25:16;1.30;99.90
52387;DHT22;38317;53.084;6.960;2022-11-20T09:27:42;1.40;99.90
52387;DHT22;38317;53.084;6.960;2022-11-20T09:30:10;1.40;99.90
52387;DHT22;38317;53.084;6.960;2022-11-20T09:32:36;1.40;99.90
52387;DHT22;38317;53.084;6.960;2022-11-20T09:35:01;1.40;99.90
52387;DHT22;38317;53.084;6.960;2022-11-20T09:37:27;1.50;99.90
52387;DHT22;38317;53.084;6.960;2022-11-20T09:39:53;1.50;99.90
52387;DHT22;38317;53.084;6.960;2022-11-20T09:47:56;1.50;99.90
52387;DHT22;38317;53.084;6.960;2022-11-20T09:50:32;1.60;99.90
52387;DHT22;38317;53.084;6.960;2022-11-20T09:55:37;1.60;99.90
52387;DHT22;38317;53.084;6.960;2022-11-20T09:58:06;1.60;99.90
52387;DHT22;38317;53.084;6.960;2022-11-20T10:00:35;1.60;99.90
52387;DHT22;38317;53.084;6.960;2022-11-20T10:03:16;1.60;99.90
52387;DHT22;38317;53.084;6.960;2022-11-20T10:05:57;1.70;99.90
52387;DHT22;38317;53.084;6.960;2022-11-20T10:08:43;1.70;99.90
52387;DHT22;38317;53.084;6.960;2022-11-20T10:11:33;1.70;99.90
52387;DHT22;38317;53.084;6.960;2022-11-20T10:17:08;1.80;99.90
52387;DHT22;38317;53.084;6.960;2022-11-20T10:20:12;1.80;99.90
52387;DHT22;38317;53.084;6.960;2022-11-20T10:22:44;1.80;99.90
52387;DHT22;38317;53.084;6.960;2022-11-20T10:28:12;1.70;99.90
52387;DHT22;38317;53.084;6.960;2022-11-20T10:30:43;1.80;99.90
52387;DHT22;38317;53.084;6.960;2022-11-20T10:33:21;1.80;99.90
52387;DHT22;38317;53.084;6.960;2022-11-20T10:36:21;1.80;99.90
52387;DHT22;38317;53.084;6.960;2022-11-20T10:41:45;1.90;99.90
52387;DHT22;38317;53.084;6.960;2022-11-20T10:44:22;1.90;99.90
52387;DHT22;38317;53.084;6.960;2022-11-20T10:47:19;1.90;99.90
52387;DHT22;38317;53.084;6.960;2022-11-20T10:49:48;2.00;99.90
52387;DHT22;38317;53.084;6.960;2022-11-20T10:53:05;2.00;99.90
52387;DHT22;38317;53.084;6.960;2022-11-20T10:55:38;2.00;99.90
52387;DHT22;38317;53.084;6.960;2022-11-20T10:58:14;2.00;99.90
52387;DHT22;38317;53.084;6.960;2022-11-20T11:00:41;2.10;99.90
52387;DHT22;38317;53.084;6.960;2022-11-20T11:03:24;2.30;99.90
52387;DHT22;38317;53.084;6.960;2022-11-20T11:06:17;2.00;99.90
52387;DHT22;38317;53.084;6.960;2022-11-20T11:08:47;2.20;99.90
52387;DHT22;38317;53.084;6.960;2022-11-20T11:11:26;2.20;99.90
52387;DHT22;38317;53.084;6.960;2022-11-20T11:13:53;2.40;99.90
52387;DHT22;38317;53.084;6.960;2022-11-20T11:16:29;2.40;99.90
52387;DHT22;38317;53.084;6.960;2022-11-20T11:19:12;2.40;99.90
52387;DHT22;38317;53.084;6.960;2022-11-20T11:21:38;2.40;99.90
52387;DHT22;38317;53.084;6.960;2022-11-20T11:24:29;2.50;99.90
52387;DHT22;38317;53.084;6.960;2022-11-20T11:29:30;2.40;99.90
52387;DHT22;38317;53.084;6.960;2022-11-20T11:32:22;2.60;99.90
52387;DHT22;38317;53.084;6.960;2022-11-20T11:35:05;2.60;99.90
52387;DHT22;38317;53.084;6.960;2022-11-20T11:37:37;2.70;99.90
52387;DHT22;38317;53.084;6.960;2022-11-20T11:40:04;2.70;99.90
52387;DHT22;38317;53.084;6.960;2022-11-20T11:42:31;2.80;99.90
52387;DHT22;38317;53.084;6.960;2022-11-20T11:44:59;2.80;99.90
52387;DHT22;38317;53.084;6.960;2022-11-20T11:47:36;2.80;99.90
52387;DHT22;38317;53.084;6.960;2022-11-20T11:55:45;2.80;99.90
52387;DHT22;38317;53.084;6.960;2022-11-20T11:58:44;2.90;99.90
52387;DHT22;38317;53.084;6.960;2022-11-20T12:01:29;2.90;99.90
52387;DHT22;38317;53.084;6.960;2022-11-20T12:07:12;3.10;99.90
52387;DHT22;38317;53.084;6.960;2022-11-20T12:09:46;3.10;99.90
52387;DHT22;38317;53.084;6.960;2022-11-20T12:12:29;3.20;99.90
52387;DHT22;38317;53.084;6.960;2022-11-20T12:14:57;3.20;99.90
52387;DHT22;38317;53.084;6.960;2022-11-20T12:17:24;3.20;99.90
52387;DHT22;38317;53.084;6.960;2022-11-20T12:19:49;3.10;99.90
52387;DHT22;38317;53.084;6.960;2022-11-20T12:25:38;3.10;99.90
52387;DHT22;38317;53.084;6.960;2022-11-20T12:28:22;3.10;99.90
52387;DHT22;38317;53.084;6.960;2022-11-20T12:34:06;3.10;99.90
52387;DHT22;38317;53.084;6.960;2022-11-20T12:36:43;3.10;99.90
52387;DHT22;38317;53.084;6.960;2022-11-20T12:39:40;3.10;99.90
52387;DHT22;38317;53.084;6.960;2022-11-20T13:07:28;3.50;99.90
52387;DHT22;38317;53.084;6.960;2022-11-20T13:09:55;3.40;99.90
52387;DHT22;38317;53.084;6.960;2022-11-20T13:17:43;3.40;99.90
52387;DHT22;38317;53.084;6.960;2022-11-20T13:20:17;3.30;99.90
52387;DHT22;38317;53.084;6.960;2022-11-20T13:25:10;3.30;99.90
52387;DHT22;38317;53.084;6.960;2022-11-20T13:27:47;3.30;99.90
52387;DHT22;38317;53.084;6.960;2022-11-20T13:30:16;3.40;99.90
52387;DHT22;38317;53.084;6.960;2022-11-20T13:35:33;3.40;99.90
52387;DHT22;38317;53.084;6.960;2022-11-20T13:38:11;3.40;99.90
52387;DHT22;38317;53.084;6.960;2022-11-20T13:40:58;3.40;99.90
52387;DHT22;38317;53.084;6.960;2022-11-20T13:43:42;3.40;99.90
52387;DHT22;38317;53.084;6.960;2022-11-20T13:46:09;3.40;99.90
52387;DHT22;38317;53.084;6.960;2022-11-20T13:48:40;3.40;99.90
52387;DHT22;38317;53.084;6.960;2022-11-20T13:54:26;3.40;99.90
52387;DHT22;38317;53.084;6.960;2022-11-20T13:59:43;3.30;99.90
52387;DHT22;38317;53.084;6.960;2022-11-20T14:02:15;3.30;99.90
52387;DHT22;38317;53.084;6.960;2022-11-20T14:04:48;3.30;99.90
52387;DHT22;38317;53.084;6.960;2022-11-20T14:07:15;3.30;99.90
52387;DHT22;38317;53.084;6.960;2022-11-20T14:09:51;3.30;99.90
52387;DHT22;38317;53.084;6.960;2022-11-20T14:12:22;3.20;99.90
52387;DHT22;38317;53.084;6.960;2022-11-20T14:14:50;3.30;99.90
52387;DHT22;38317;53.084;6.960;2022-11-20T14:19:58;3.20;99.90
52387;DHT22;38317;53.084;6.960;2022-11-20T14:22:26;3.40;99.90
52387;DHT22;38317;53.084;6.960;2022-11-20T14:27:42;3.10;99.90
52387;DHT22;38317;53.084;6.960;2022-11-20T14:32:41;3.10;99.90
52387;DHT22;38317;53.084;6.960;2022-11-20T14:35:10;3.10;99.90
52387;DHT22;38317;53.084;6.960;2022-11-20T14:37:39;3.10;99.90
52387;DHT22;38317;53.084;6.960;2022-11-20T14:40:30;3.00;99.90
52387;DHT22;38317;53.084;6.960;2022-11-20T14:42:57;3.00;99.90
52387;DHT22;38317;53.084;6.960;2022-11-20T14:45:24;3.00;99.90
52387;DHT22;38317;53.084;6.960;2022-11-20T14:47:52;3.00;99.90
52387;DHT22;38317;53.084;6.960;2022-11-20T14:50:22;2.90;99.90
52387;DHT22;38317;53.084;6.960;2022-11-20T14:52:59;2.90;99.90
52387;DHT22;38317;53.084;6.960;2022-11-20T14:55:35;2.90;99.90
52387;DHT22;38317;53.084;6.960;2022-11-20T14:58:21;2.90;99.90
52387;DHT22;38317;53.084;6.960;2022-11-20T15:01:05;2.80;99.90
52387;DHT22;38317;53.084;6.960;2022-11-20T15:03:38;2.90;99.90
52387;DHT22;38317;53.084;6.960;2022-11-20T15:06:10;2.80;99.90
52387;DHT22;38317;53.084;6.960;2022-11-20T15:08:37;2.80;99.90
52387;DHT22;38317;53.084;6.960;2022-11-20T15:11:14;2.80;99.90
52387;DHT22;38317;53.084;6.960;2022-11-20T15:13:41;2.70;99.90
52387;DHT22;38317;53.084;6.960;2022-11-20T15:16:18;2.70;99.90
52387;DHT22;38317;53.084;6.960;2022-11-20T15:18:45;2.60;99.90
52387;DHT22;38317;53.084;6.960;2022-11-20T15:21:14;2.60;99.90
52387;DHT22;38317;53.084;6.960;2022-11-20T15:23:40;2.60;99.90
52387;DHT22;38317;53.084;6.960;2022-11-20T15:26:06;2.50;99.90
52387;DHT22;38317;53.084;6.960;2022-11-20T15:28:39;2.50;99.90
52387;DHT22;38317;53.084;6.960;2022-11-20T15:31:06;2.40;99.90
52387;DHT22;38317;53.084;6.960;2022-11-20T15:33:32;2.40;99.90
52387;DHT22;38317;53.084;6.960;2022-11-20T15:35:58;2.30;99.90
52387;DHT22;38317;53.084;6.960;2022-11-20T15:38:24;2.40;99.90
52387;DHT22;38317;53.084;6.960;2022-11-20T15:40:50;2.40;99.90
52387;DHT22;38317;53.084;6.960;2022-11-20T15:43:16;2.40;99.90
52387;DHT22;38317;53.084;6.960;2022-11-20T15:46:03;2.30;99.90
52387;DHT22;38317;53.084;6.960;2022-11-20T15:48:34;2.30;99.90
52387;DHT22;38317;53.084;6.960;2022-11-20T15:53:36;2.40;99.90
52387;DHT22;38317;53.084;6.960;2022-11-20T15:56:02;2.20;99.90
52387;DHT22;38317;53.084;6.960;2022-11-20T15:58:28;2.20;99.90
52387;DHT22;38317;53.084;6.960;2022-11-20T16:00:54;2.20;99.90
52387;DHT22;38317;53.084;6.960;2022-11-20T16:03:20;2.20;99.90
52387;DHT22;38317;53.084;6.960;2022-11-20T16:05:46;2.20;99.90
52387;DHT22;38317;53.084;6.960;2022-11-20T16:08:12;2.10;99.90
52387;DHT22;38317;53.084;6.960;2022-11-20T16:10:38;2.10;99.90
52387;DHT22;38317;53.084;6.960;2022-11-20T16:13:11;2.10;99.90
52387;DHT22;38317;53.084;6.960;2022-11-20T16:15:58;2.10;99.90
52387;DHT22;38317;53.084;6.960;2022-11-20T16:18:24;2.10;99.90
52387;DHT22;38317;53.084;6.960;2022-11-20T16:20:54;2.10;99.90
52387;DHT22;38317;53.084;6.960;2022-11-20T16:23:20;2.10;99.90
52387;DHT22;38317;53.084;6.960;2022-11-20T16:25:47;2.10;99.90
52387;DHT22;38317;53.084;6.960;2022-11-20T16:28:13;2.10;99.90
52387;DHT22;38317;53.084;6.960;2022-11-20T16:30:39;2.00;99.90
52387;DHT22;38317;53.084;6.960;2022-11-20T16:33:10;2.10;99.90
52387;DHT22;38317;53.084;6.960;2022-11-20T16:35:37;2.10;99.90
52387;DHT22;38317;53.084;6.960;2022-11-20T16:38:03;2.10;99.90
52387;DHT22;38317;53.084;6.960;2022-11-20T16:40:28;2.10;99.90
52387;DHT22;38317;53.084;6.960;2022-11-20T16:42:54;2.10;99.90
52387;DHT22;38317;53.084;6.960;2022-11-20T16:45:20;2.10;99.90
52387;DHT22;38317;53.084;6.960;2022-11-20T16:47:46;2.20;99.90
52387;DHT22;38317;53.084;6.960;2022-11-20T16:50:12;2.10;99.90
52387;DHT22;38317;53.084;6.960;2022-11-20T16:52:38;2.10;99.90
52387;DHT22;38317;53.084;6.960;2022-11-20T16:55:04;2.10;99.90
52387;DHT22;38317;53.084;6.960;2022-11-20T16:57:31;2.10;99.90
52387;DHT22;38317;53.084;6.960;2022-11-20T16:59:59;2.10;99.90
52387;DHT22;38317;53.084;6.960;2022-11-20T17:02:25;2.10;99.90
52387;DHT22;38317;53.084;6.960;2022-11-20T17:04:52;2.10;99.90
52387;DHT22;38317;53.084;6.960;2022-11-20T17:07:18;2.10;99.90
52387;DHT22;38317;53.084;6.960;2022-11-20T17:09:44;2.10;99.90
52387;DHT22;38317;53.084;6.960;2022-11-20T17:12:09;2.10;99.90
52387;DHT22;38317;53.084;6.960;2022-11-20T17:14:35;2.10;99.90
52387;DHT22;38317;53.084;6.960;2022-11-20T17:17:01;2.10;99.90
52387;DHT22;38317;53.084;6.960;2022-11-20T17:19:27;2.10;99.90
52387;DHT22;38317;53.084;6.960;2022-11-20T17:21:53;2.10;99.90
52387;DHT22;38317;53.084;6.960;2022-11-20T17:24:19;2.10;99.90
52387;DHT22;38317;53.084;6.960;2022-11-20T17:26:47;2.10;99.90
52387;DHT22;38317;53.084;6.960;2022-11-20T17:29:17;2.20;99.90
52387;DHT22;38317;53.084;6.960;2022-11-20T17:31:44;2.10;99.90
52387;DHT22;38317;53.084;6.960;2022-11-20T17:34:11;2.10;99.90
52387;DHT22;38317;53.084;6.960;2022-11-20T17:36:38;2.10;99.90
52387;DHT22;38317;53.084;6.960;2022-11-20T17:39:18;2.10;99.90
52387;DHT22;38317;53.084;6.960;2022-11-20T17:41:44;2.40;99.90
52387;DHT22;38317;53.084;6.960;2022-11-20T17:44:30;2.00;99.90
52387;DHT22;38317;53.084;6.960;2022-11-20T17:46:56;2.10;99.90
52387;DHT22;38317;53.084;6.960;2022-11-20T17:49:21;2.00;99.90